createdAt,value
2018-08-13T00:00:35.782Z,3.00
2018-08-13T00:03:03.939Z,3.27
2018-08-13T00:05:32.055Z,3.37
2018-08-13T00:08:00.136Z,4.30
2018-08-13T00:10:28.270Z,3.47
2018-08-13T00:12:56.392Z,4.00
2018-08-13T00:15:24.511Z,3.97
2018-08-13T00:17:52.631Z,3.63
2018-08-13T00:20:20.725Z,4.17
2018-08-13T00:22:48.837Z,4.83
2018-08-13T00:25:16.932Z,3.80
2018-08-13T00:27:44.993Z,4.13
2018-08-13T00:30:13.120Z,3.80
2018-08-13T00:32:41.270Z,4.13
2018-08-13T00:35:09.365Z,3.60
2018-08-13T00:37:37.518Z,3.63
2018-08-13T00:40:08.156Z,3.90
2018-08-13T00:42:36.268Z,4.17
2018-08-13T00:45:04.829Z,3.60
2018-08-13T00:47:33.531Z,4.33
2018-08-13T00:50:01.704Z,4.15
2018-08-13T00:52:29.755Z,3.55
2018-08-13T00:54:57.892Z,4.07
2018-08-13T00:57:26.064Z,4.30
2018-08-13T00:59:54.216Z,4.30
2018-08-13T01:02:22.393Z,3.70
2018-08-13T01:04:50.503Z,4.33
2018-08-13T01:07:18.681Z,5.00
2018-08-13T01:09:46.774Z,4.70
2018-08-13T01:12:14.908Z,3.70
2018-08-13T01:14:43.031Z,3.80
2018-08-13T01:17:11.155Z,3.47
2018-08-13T01:19:39.301Z,4.17
2018-08-13T01:22:07.432Z,3.73
2018-08-13T01:24:35.572Z,4.10
2018-08-13T01:27:03.729Z,3.97
2018-08-13T01:29:31.945Z,4.03
2018-08-13T01:32:00.071Z,4.40
2018-08-13T01:34:28.232Z,4.10
2018-08-13T01:36:56.379Z,3.93
2018-08-13T01:39:24.577Z,4.33
2018-08-13T01:41:52.695Z,4.50
2018-08-13T01:44:20.832Z,4.77
2018-08-13T01:46:48.997Z,4.25
2018-08-13T01:49:17.151Z,3.53
2018-08-13T01:51:45.268Z,4.00
2018-08-13T01:54:13.416Z,3.67
2018-08-13T01:56:41.527Z,4.50
2018-08-13T01:59:09.653Z,4.53
2018-08-13T02:01:37.771Z,8.53
2018-08-13T02:04:05.940Z,4.43
2018-08-13T02:06:34.071Z,3.30
2018-08-13T02:09:02.160Z,3.80
2018-08-13T02:11:30.287Z,4.23
2018-08-13T02:13:58.493Z,5.10
2018-08-13T02:16:26.612Z,4.20
2018-08-13T02:18:54.812Z,3.90
2018-08-13T02:21:22.929Z,3.93
2018-08-13T02:23:51.083Z,3.50
2018-08-13T02:26:19.188Z,3.70
2018-08-13T02:28:47.334Z,5.00
2018-08-13T02:31:15.435Z,4.10
2018-08-13T02:33:43.582Z,4.33
2018-08-13T02:36:11.697Z,4.00
2018-08-13T02:38:39.829Z,4.23
2018-08-13T02:41:08.597Z,4.45
2018-08-13T02:43:36.754Z,4.17
2018-08-13T02:46:04.876Z,3.85
2018-08-13T02:48:32.990Z,3.87
2018-08-13T02:51:01.162Z,4.00
2018-08-13T02:53:29.291Z,3.93
2018-08-13T02:55:57.453Z,4.33
2018-08-13T02:58:25.577Z,4.10
2018-08-13T03:00:53.690Z,4.10
2018-08-13T03:03:21.823Z,4.40
2018-08-13T03:05:49.976Z,4.07
2018-08-13T03:08:18.106Z,3.93
2018-08-13T03:10:46.208Z,4.00
2018-08-13T03:13:14.349Z,3.93
2018-08-13T03:15:42.464Z,4.43
2018-08-13T03:18:10.607Z,3.77
2018-08-13T03:20:38.734Z,4.40
2018-08-13T03:23:07.272Z,4.53
2018-08-13T03:25:35.421Z,4.10
2018-08-13T03:28:03.677Z,4.20
2018-08-13T03:30:31.850Z,3.90
2018-08-13T03:32:59.997Z,3.93
2018-08-13T03:35:28.134Z,4.27
2018-08-13T03:37:56.288Z,4.43
2018-08-13T03:40:24.410Z,4.60
2018-08-13T03:42:52.546Z,4.07
2018-08-13T03:45:20.682Z,4.23
2018-08-13T03:47:48.804Z,4.90
2018-08-13T03:50:16.967Z,4.33
2018-08-13T03:52:45.119Z,4.57
2018-08-13T03:55:13.310Z,4.60
2018-08-13T03:57:42.143Z,3.77
2018-08-13T04:00:14.293Z,5.20
2018-08-13T04:02:42.651Z,4.30
2018-08-13T04:05:11.205Z,5.20
2018-08-13T04:07:40.130Z,8.08
2018-08-13T04:10:09.483Z,5.13
2018-08-13T04:12:38.999Z,4.40
2018-08-13T04:15:08.363Z,4.70
2018-08-13T04:17:36.562Z,4.20
2018-08-13T04:20:07.286Z,3.73
2018-08-13T04:22:35.577Z,4.27
2018-08-13T04:25:04.458Z,4.50
2018-08-13T04:27:32.614Z,4.12
2018-08-13T04:30:00.737Z,3.98
2018-08-13T04:32:28.902Z,4.53
2018-08-13T04:34:57.021Z,3.87
2018-08-13T04:37:25.149Z,3.87
2018-08-13T04:39:53.277Z,4.42
2018-08-13T04:42:21.445Z,4.17
2018-08-13T04:44:49.688Z,4.50
2018-08-13T04:47:17.825Z,4.30
2018-08-13T04:49:45.981Z,4.30
2018-08-13T04:52:14.180Z,4.40
2018-08-13T04:54:42.365Z,4.40
2018-08-13T04:57:10.486Z,4.23
2018-08-13T04:59:38.608Z,4.50
2018-08-13T05:02:06.773Z,4.57
2018-08-13T05:04:34.929Z,3.93
2018-08-13T05:07:03.101Z,4.40
2018-08-13T05:09:31.259Z,4.93
2018-08-13T05:11:59.353Z,5.23
2018-08-13T05:14:27.461Z,4.70
2018-08-13T05:16:55.586Z,4.60
2018-08-13T05:19:23.687Z,4.63
2018-08-13T05:21:51.843Z,4.07
2018-08-13T05:24:20.026Z,4.00
2018-08-13T05:26:48.219Z,4.60
2018-08-13T05:29:16.358Z,4.60
2018-08-13T05:31:44.483Z,4.27
2018-08-13T05:34:12.669Z,4.00
2018-08-13T05:36:40.823Z,4.70
2018-08-13T05:39:10.389Z,4.50
2018-08-13T05:41:38.537Z,4.87
2018-08-13T05:44:06.816Z,4.28
2018-08-13T05:46:35.343Z,4.17
2018-08-13T05:49:03.491Z,4.20
2018-08-13T05:51:31.656Z,4.62
2018-08-13T05:53:59.882Z,4.00
2018-08-13T05:56:28.022Z,4.40
2018-08-13T05:58:56.159Z,4.10
2018-08-13T06:01:24.276Z,4.37
2018-08-13T06:03:52.563Z,4.10
2018-08-13T06:06:20.884Z,4.23
2018-08-13T06:08:49.034Z,4.07
2018-08-13T06:11:17.154Z,4.00
2018-08-13T06:13:45.249Z,4.40
2018-08-13T06:16:13.697Z,4.27
2018-08-13T06:18:41.907Z,4.30
2018-08-13T06:21:10.078Z,4.30
2018-08-13T06:23:38.427Z,4.00
2018-08-13T06:26:06.572Z,3.98
2018-08-13T06:28:34.705Z,4.10
2018-08-13T06:31:02.897Z,4.08
2018-08-13T06:33:30.992Z,3.98
2018-08-13T06:35:59.197Z,3.50
2018-08-13T06:38:27.341Z,4.03
2018-08-13T06:40:55.505Z,3.73
2018-08-13T06:43:23.682Z,4.53
2018-08-13T06:45:51.822Z,3.73
2018-08-13T06:48:20.050Z,3.80
2018-08-13T06:50:48.180Z,3.80
2018-08-13T06:53:16.328Z,3.98
2018-08-13T06:55:44.472Z,3.63
2018-08-13T06:58:12.639Z,3.30
2018-08-13T07:00:40.834Z,3.50
2018-08-13T07:03:09.625Z,3.92
2018-08-13T07:05:37.755Z,3.90
2018-08-13T07:08:06.488Z,3.20
2018-08-13T07:10:35.083Z,3.70
2018-08-13T07:13:03.455Z,3.50
2018-08-13T07:15:31.611Z,4.00
2018-08-13T07:17:59.755Z,3.47
2018-08-13T07:20:27.929Z,2.80
2018-08-13T07:22:56.108Z,3.50
2018-08-13T07:25:24.316Z,3.37
2018-08-13T07:27:52.461Z,3.53
2018-08-13T07:30:20.604Z,3.03
2018-08-13T07:32:48.745Z,5.93
2018-08-13T07:35:16.893Z,2.90
2018-08-13T07:37:45.035Z,3.40
2018-08-13T07:40:15.476Z,3.00
2018-08-13T07:42:43.804Z,3.33
2018-08-13T07:45:12.011Z,2.90
2018-08-13T07:47:40.181Z,3.00
2018-08-13T07:50:09.927Z,3.40
2018-08-13T07:52:38.075Z,3.27
2018-08-13T07:55:06.488Z,6.73
2018-08-13T07:57:34.842Z,3.30
2018-08-13T08:00:03.058Z,3.17
2018-08-13T08:02:31.125Z,3.23
2018-08-13T08:04:59.301Z,3.83
2018-08-13T08:07:27.513Z,3.63
2018-08-13T08:09:55.675Z,2.70
2018-08-13T08:12:23.820Z,3.83
2018-08-13T08:14:52.793Z,3.15
2018-08-13T08:17:20.969Z,3.17
2018-08-13T08:19:49.173Z,3.70
2018-08-13T08:22:17.773Z,3.00
2018-08-13T08:24:45.959Z,3.02
2018-08-13T08:27:14.078Z,3.47
2018-08-13T08:29:42.208Z,2.97
2018-08-13T08:32:10.375Z,2.20
2018-08-13T08:34:38.533Z,2.60
2018-08-13T08:37:06.617Z,2.23
2018-08-13T08:39:34.788Z,2.40
2018-08-13T08:42:02.994Z,2.30
2018-08-13T08:44:31.133Z,2.70
2018-08-13T08:46:59.271Z,2.87
2018-08-13T08:49:27.537Z,2.65
2018-08-13T08:51:55.680Z,3.60
2018-08-13T08:54:23.901Z,3.23
2018-08-13T08:56:52.066Z,2.93
2018-08-13T08:59:20.191Z,2.80
2018-08-13T09:01:48.336Z,2.40
2018-08-13T09:04:16.477Z,3.13
2018-08-13T09:06:44.593Z,9.07
2018-08-13T09:09:13.706Z,3.40
2018-08-13T09:11:42.599Z,3.47
2018-08-13T09:14:10.831Z,2.40
2018-08-13T09:16:39.628Z,2.27
2018-08-13T09:19:19.264Z,2.70
2018-08-13T09:21:51.150Z,3.40
2018-08-13T09:24:30.828Z,4.08
2018-08-13T09:27:10.334Z,2.37
2018-08-13T09:29:49.948Z,2.97
2018-08-13T09:32:31.673Z,3.00
2018-08-13T09:35:06.177Z,5.58
2018-08-13T09:37:34.420Z,2.60
2018-08-13T09:40:02.569Z,2.50
2018-08-13T09:42:30.725Z,2.20
2018-08-13T09:44:58.929Z,2.10
2018-08-13T09:47:27.043Z,2.80
2018-08-13T09:49:55.223Z,2.17
2018-08-13T09:52:23.384Z,2.50
2018-08-13T09:54:51.520Z,2.87
2018-08-13T09:57:19.657Z,2.33
2018-08-13T09:59:47.799Z,1.90
2018-08-13T10:02:15.993Z,2.37
2018-08-13T10:04:44.158Z,2.73
2018-08-13T10:07:12.334Z,2.07
2018-08-13T10:09:40.540Z,3.10
2018-08-13T10:12:08.666Z,2.50
2018-08-13T10:14:36.858Z,2.60
2018-08-13T10:17:05.025Z,2.65
2018-08-13T10:19:33.209Z,1.75
2018-08-13T10:22:01.368Z,2.40
2018-08-13T10:24:29.549Z,1.70
2018-08-13T10:26:57.725Z,2.30
2018-08-13T10:29:25.858Z,2.90
2018-08-13T10:31:53.984Z,2.07
2018-08-13T10:34:22.136Z,2.20
2018-08-13T10:36:50.260Z,2.10
2018-08-13T10:39:18.373Z,2.30
2018-08-13T10:41:46.498Z,2.67
2018-08-13T10:44:14.675Z,2.00
2018-08-13T10:46:42.853Z,1.80
2018-08-13T10:49:10.968Z,2.07
2018-08-13T10:51:39.094Z,2.30
2018-08-13T10:54:07.292Z,2.77
2018-08-13T10:56:35.437Z,4.80
2018-08-13T10:59:03.569Z,2.50
2018-08-13T11:01:31.737Z,2.20
2018-08-13T11:03:59.889Z,2.13
2018-08-13T11:06:28.024Z,1.97
2018-08-13T11:08:56.133Z,2.03
2018-08-13T11:11:24.261Z,2.67
2018-08-13T11:13:52.777Z,2.20
2018-08-13T11:16:20.927Z,1.87
2018-08-13T11:18:49.062Z,3.13
2018-08-13T11:21:17.214Z,2.93
2018-08-13T11:23:45.347Z,1.77
2018-08-13T11:26:13.515Z,2.13
2018-08-13T11:28:41.650Z,4.73
2018-08-13T11:31:09.818Z,2.13
2018-08-13T11:33:37.965Z,2.23
2018-08-13T11:36:06.150Z,2.53
2018-08-13T11:38:34.326Z,2.10
2018-08-13T11:41:02.473Z,2.50
2018-08-13T11:43:30.589Z,4.70
2018-08-13T11:45:58.790Z,2.00
2018-08-13T11:48:26.937Z,2.53
2018-08-13T11:50:55.849Z,2.80
2018-08-13T11:53:23.999Z,2.83
2018-08-13T11:55:52.191Z,2.17
2018-08-13T11:58:20.382Z,2.93
2018-08-13T12:00:48.525Z,3.17
2018-08-13T12:03:16.690Z,2.33
2018-08-13T12:05:44.824Z,1.93
2018-08-13T12:08:12.977Z,2.13
2018-08-13T12:10:41.165Z,2.33
2018-08-13T12:13:09.338Z,2.20
2018-08-13T12:15:37.458Z,2.43
2018-08-13T12:18:06.609Z,2.70
2018-08-13T12:20:34.740Z,2.40
2018-08-13T12:23:02.867Z,3.30
2018-08-13T12:25:31.817Z,2.33
2018-08-13T12:27:59.968Z,3.70
2018-08-13T12:30:28.088Z,3.10
2018-08-13T12:32:56.550Z,2.60
2018-08-13T12:35:24.744Z,2.67
2018-08-13T12:37:52.865Z,2.60
2018-08-13T12:40:21.114Z,2.33
2018-08-13T12:42:49.242Z,3.37
2018-08-13T12:45:18.289Z,2.50
2018-08-13T12:47:46.450Z,2.23
2018-08-13T12:50:16.164Z,2.55
2018-08-13T12:52:45.704Z,1.97
2018-08-13T12:55:14.277Z,2.67
2018-08-13T12:57:42.533Z,2.40
2018-08-13T13:00:13.409Z,2.10
2018-08-13T13:02:42.383Z,2.40
2018-08-13T13:05:11.906Z,2.70
2018-08-13T13:07:40.078Z,2.53
2018-08-13T13:10:10.726Z,3.00
2018-08-13T13:12:39.188Z,3.03
2018-08-13T13:15:08.934Z,2.73
2018-08-13T13:17:38.015Z,2.97
2018-08-13T13:20:07.673Z,2.60
2018-08-13T13:22:35.816Z,2.70
2018-08-13T13:25:04.131Z,2.87
2018-08-13T13:27:32.580Z,2.47
2018-08-13T13:30:00.725Z,2.70
2018-08-13T13:32:29.132Z,3.23
2018-08-13T13:34:57.261Z,2.53
2018-08-13T13:37:25.379Z,2.67
2018-08-13T13:39:53.543Z,2.70
2018-08-13T13:42:21.643Z,3.60
2018-08-13T13:44:49.778Z,2.47
2018-08-13T13:47:17.954Z,3.47
2018-08-13T13:49:47.037Z,4.10
2018-08-13T13:52:15.223Z,3.70
2018-08-13T13:54:43.354Z,3.73
2018-08-13T13:57:11.586Z,3.07
2018-08-13T13:59:39.775Z,2.50
2018-08-13T14:02:07.974Z,3.60
2018-08-13T14:04:36.126Z,5.23
2018-08-13T14:07:04.462Z,3.00
2018-08-13T14:09:32.589Z,3.20
2018-08-13T14:12:00.735Z,3.10
2018-08-13T14:14:28.857Z,2.70
2018-08-13T14:16:57.005Z,3.20
2018-08-13T14:19:25.255Z,3.00
2018-08-13T14:21:53.408Z,2.85
2018-08-13T14:24:21.539Z,2.83
2018-08-13T14:26:49.685Z,3.63
2018-08-13T14:29:17.822Z,2.95
2018-08-13T14:31:45.954Z,2.65
2018-08-13T14:34:14.084Z,4.80
2018-08-13T14:36:42.196Z,4.40
2018-08-13T14:39:11.514Z,4.35
2018-08-13T14:41:39.613Z,3.27
2018-08-13T14:44:07.744Z,3.10
2018-08-13T14:46:36.074Z,2.67
2018-08-13T14:49:04.226Z,5.00
2018-08-13T14:51:33.534Z,3.08
2018-08-13T14:54:02.530Z,3.10
2018-08-13T14:56:30.688Z,2.97
2018-08-13T14:58:58.844Z,2.60
2018-08-13T15:01:26.992Z,2.63
2018-08-13T15:03:55.202Z,2.97
2018-08-13T15:06:23.803Z,3.30
2018-08-13T15:08:51.973Z,2.87
2018-08-13T15:11:20.133Z,2.45
2018-08-13T15:13:48.280Z,5.10
2018-08-13T15:16:16.384Z,2.50
2018-08-13T15:18:44.506Z,2.10
2018-08-13T15:21:13.025Z,2.20
2018-08-13T15:23:41.193Z,2.40
2018-08-13T15:26:09.408Z,2.00
2018-08-13T15:28:37.538Z,2.03
2018-08-13T15:31:05.990Z,2.00
2018-08-13T15:33:34.232Z,2.17
2018-08-13T15:36:02.451Z,2.50
2018-08-13T15:38:30.585Z,2.33
2018-08-13T15:40:58.740Z,2.20
2018-08-13T15:43:26.914Z,2.30
2018-08-13T15:45:55.116Z,1.77
2018-08-13T15:48:23.284Z,2.10
2018-08-13T15:50:51.378Z,1.80
2018-08-13T15:53:19.497Z,1.87
2018-08-13T15:55:47.668Z,1.83
2018-08-13T15:58:15.881Z,2.90
2018-08-13T16:00:44.038Z,1.50
2018-08-13T16:03:12.197Z,2.10
2018-08-13T16:05:40.403Z,1.70
2018-08-13T16:08:08.679Z,2.27
2018-08-13T16:10:36.858Z,3.33
2018-08-13T16:13:05.074Z,1.40
2018-08-13T16:15:33.246Z,1.30
2018-08-13T16:18:01.426Z,1.47
2018-08-13T16:20:29.601Z,1.77
2018-08-13T16:22:57.779Z,1.80
2018-08-13T16:25:25.980Z,2.50
2018-08-13T16:27:54.163Z,2.00
2018-08-13T16:30:24.653Z,2.50
2018-08-13T16:32:52.889Z,2.80
2018-08-13T16:35:21.819Z,1.97
2018-08-13T16:37:49.999Z,1.80
2018-08-13T16:40:18.866Z,1.40
2018-08-13T16:42:47.202Z,1.43
2018-08-13T16:45:16.460Z,2.00
2018-08-13T16:47:44.664Z,1.70
2018-08-13T16:50:18.248Z,1.70
2018-08-13T16:52:46.399Z,1.30
2018-08-13T16:55:14.639Z,1.50
2018-08-13T16:57:43.548Z,1.60
2018-08-13T17:00:13.744Z,1.67
2018-08-13T17:02:41.937Z,1.47
2018-08-13T17:05:11.724Z,1.13
2018-08-13T17:07:41.014Z,1.93
2018-08-13T17:10:12.246Z,1.60
2018-08-13T17:12:40.402Z,2.00
2018-08-13T17:15:09.583Z,1.50
2018-08-13T17:17:38.237Z,1.67
2018-08-13T17:20:08.034Z,2.63
2018-08-13T17:22:36.214Z,2.30
2018-08-13T17:25:05.132Z,3.27
2018-08-13T17:27:33.317Z,4.60
2018-08-13T17:30:01.437Z,5.75
2018-08-13T17:32:29.549Z,5.00
2018-08-13T17:34:57.708Z,3.33
2018-08-13T17:37:25.813Z,3.57
2018-08-13T17:39:53.952Z,3.17
2018-08-13T17:42:22.118Z,2.50
2018-08-13T17:44:50.252Z,3.80
2018-08-13T17:47:18.370Z,2.70
2018-08-13T17:49:46.546Z,3.80
2018-08-13T17:52:14.689Z,3.40
2018-08-13T17:54:42.819Z,2.50
2018-08-13T17:57:10.985Z,2.63
2018-08-13T17:59:39.135Z,2.70
2018-08-13T18:02:07.336Z,4.30
2018-08-13T18:04:35.408Z,4.08
2018-08-13T18:07:03.547Z,2.87
2018-08-13T18:09:31.660Z,3.43
2018-08-13T18:11:59.849Z,2.93
2018-08-13T18:14:28.010Z,2.97
2018-08-13T18:16:56.158Z,3.67
2018-08-13T18:19:24.338Z,3.80
2018-08-13T18:21:52.693Z,6.43
2018-08-13T18:24:20.883Z,3.33
2018-08-13T18:26:49.072Z,4.25
2018-08-13T18:29:17.211Z,4.25
2018-08-13T18:31:45.361Z,4.20
2018-08-13T18:34:13.530Z,4.80
2018-08-13T18:36:41.653Z,6.53
2018-08-13T18:39:09.794Z,5.53
2018-08-13T18:41:37.969Z,5.57
2018-08-13T18:44:08.091Z,5.30
2018-08-13T18:46:36.261Z,8.13
2018-08-13T18:49:04.370Z,5.67
2018-08-13T18:51:32.509Z,6.03
2018-08-13T18:54:00.638Z,6.00
2018-08-13T18:56:28.889Z,5.50
2018-08-13T18:58:57.071Z,5.90
2018-08-13T19:01:25.180Z,5.60
2018-08-13T19:03:53.353Z,6.22
2018-08-13T19:06:21.496Z,8.60
2018-08-13T19:08:49.637Z,6.03
2018-08-13T19:11:17.792Z,6.20
2018-08-13T19:13:45.963Z,5.43
2018-08-13T19:16:14.138Z,6.25
2018-08-13T19:18:42.230Z,5.72
2018-08-13T19:21:10.353Z,6.72
2018-08-13T19:23:38.533Z,6.35
2018-08-13T19:26:07.032Z,7.00
2018-08-13T19:28:35.151Z,6.60
2018-08-13T19:31:03.292Z,6.60
2018-08-13T19:33:31.457Z,7.00
2018-08-13T19:35:59.613Z,6.57
2018-08-13T19:38:27.761Z,9.50
2018-08-13T19:40:55.906Z,6.47
2018-08-13T19:43:24.050Z,7.17
2018-08-13T19:45:52.230Z,6.87
2018-08-13T19:48:20.343Z,7.37
2018-08-13T19:50:48.514Z,7.37
2018-08-13T19:53:16.689Z,7.35
2018-08-13T19:55:44.877Z,7.00
2018-08-13T19:58:13.058Z,7.70
2018-08-13T20:00:41.267Z,6.73
2018-08-13T20:08:13.487Z,8.10
2018-08-13T20:10:41.643Z,7.57
2018-08-13T20:13:10.322Z,8.03
2018-08-13T20:15:38.484Z,8.70
2018-08-13T20:18:06.925Z,7.85
2018-08-13T20:20:35.117Z,9.58
2018-08-13T20:23:03.306Z,8.65
2018-08-13T20:25:31.478Z,9.30
2018-08-13T20:27:59.741Z,9.18
2018-08-13T20:30:27.863Z,9.45
2018-08-13T20:32:56.125Z,9.40
2018-08-13T20:35:24.378Z,10.10
2018-08-13T20:37:52.564Z,10.00
2018-08-13T20:40:21.527Z,9.93
2018-08-13T20:42:50.209Z,11.20
2018-08-13T20:45:19.809Z,11.50
2018-08-13T20:47:48.351Z,11.17
2018-08-13T20:50:19.610Z,12.00
2018-08-13T20:52:48.532Z,10.73
2018-08-13T20:55:19.400Z,11.00
2018-08-13T20:57:48.357Z,12.47
2018-08-13T21:00:18.084Z,11.30
2018-08-13T21:02:47.130Z,11.50
2018-08-13T21:05:15.714Z,11.93
2018-08-13T21:07:44.320Z,11.87
2018-08-13T21:10:14.457Z,10.43
2018-08-13T21:12:42.639Z,11.23
2018-08-13T21:15:12.899Z,10.30
2018-08-13T21:17:41.297Z,10.13
2018-08-13T21:20:10.465Z,10.43
2018-08-13T21:22:38.771Z,8.47
2018-08-13T21:25:09.752Z,7.97
2018-08-13T21:27:38.018Z,7.83
2018-08-13T21:30:06.422Z,8.17
2018-08-13T21:32:34.576Z,8.40
2018-08-13T21:35:02.749Z,7.53
2018-08-13T21:37:31.049Z,8.03
2018-08-13T21:39:59.231Z,7.80
2018-08-13T21:42:27.390Z,6.90
2018-08-13T21:44:55.540Z,7.10
2018-08-13T21:47:23.787Z,7.20
2018-08-13T21:49:51.933Z,7.60
2018-08-13T21:52:20.200Z,7.37
2018-08-13T21:54:48.871Z,7.80
2018-08-13T21:57:17.021Z,7.90
2018-08-13T21:59:45.150Z,9.08
2018-08-13T22:02:14.783Z,7.58
2018-08-13T22:04:43.882Z,8.28
2018-08-13T22:07:12.139Z,9.90
2018-08-13T22:09:40.329Z,9.30
2018-08-13T22:12:13.879Z,8.97
2018-08-13T22:14:42.103Z,8.83
2018-08-13T22:17:10.351Z,8.87
2018-08-13T22:19:38.464Z,8.87
2018-08-13T22:22:06.665Z,10.80
2018-08-13T22:24:46.113Z,11.60
2018-08-13T22:27:14.673Z,11.60
2018-08-13T22:29:42.905Z,13.83
2018-08-13T22:32:11.070Z,14.97
2018-08-13T22:34:39.533Z,13.90
2018-08-13T22:37:07.685Z,14.40
2018-08-13T22:39:35.809Z,14.58
2018-08-13T22:42:04.249Z,16.13
2018-08-13T22:44:32.450Z,14.63
2018-08-13T22:47:00.634Z,16.33
2018-08-13T22:49:28.789Z,15.73
2018-08-13T22:51:56.988Z,17.53
2018-08-13T22:54:25.095Z,18.37
2018-08-13T22:56:53.207Z,19.23
2018-08-13T22:59:21.375Z,20.20
2018-08-13T23:01:49.594Z,21.33
2018-08-13T23:04:17.730Z,19.60
2018-08-13T23:06:45.890Z,19.93
2018-08-13T23:09:14.021Z,22.17
2018-08-13T23:11:42.178Z,22.87
2018-08-13T23:14:10.296Z,20.50
2018-08-13T23:16:38.430Z,24.30
2018-08-13T23:19:06.586Z,24.07
2018-08-13T23:21:34.712Z,24.43
2018-08-13T23:24:02.850Z,25.90
2018-08-13T23:26:31.007Z,27.70
2018-08-13T23:28:59.119Z,29.20
2018-08-13T23:31:27.279Z,33.98
2018-08-13T23:33:55.457Z,38.67
2018-08-13T23:36:23.847Z,44.50
2018-08-13T23:38:52.002Z,43.63
2018-08-13T23:41:20.139Z,42.80
2018-08-13T23:43:48.286Z,48.30
2018-08-13T23:46:16.399Z,45.20
2018-08-13T23:48:44.511Z,46.65
2018-08-13T23:51:12.689Z,47.30
2018-08-13T23:53:40.815Z,47.53
2018-08-13T23:56:08.991Z,44.63
2018-08-13T23:58:37.122Z,47.90
